createdAt,value
2019-04-28T00:02:06.831Z,101221.59
2019-04-28T00:04:37.446Z,101220.77
2019-04-28T00:07:15.864Z,101221.17
2019-04-28T00:09:46.154Z,101212.17
2019-04-28T00:12:17.123Z,101218.22
2019-04-28T00:14:47.730Z,101216.72
2019-04-28T00:17:18.349Z,101219.23
2019-04-28T00:19:48.797Z,101221.70
2019-04-28T00:22:32.551Z,101217.20
2019-04-28T00:25:24.428Z,101216.27
2019-04-28T00:27:55.206Z,101221.59
2019-04-28T00:30:28.067Z,101219.70
2019-04-28T00:33:01.696Z,101221.59
2019-04-28T00:35:35.254Z,101221.59
2019-04-28T00:38:05.823Z,101216.41
2019-04-28T00:40:37.664Z,101224.95
2019-04-28T00:43:07.943Z,101214.73
2019-04-28T00:45:39.132Z,101222.88
2019-04-28T00:48:10.961Z,101221.70
2019-04-28T00:50:43.804Z,101219.23
2019-04-28T00:53:14.139Z,101218.44
2019-04-28T00:55:44.475Z,101220.85
2019-04-28T00:58:14.820Z,101215.45
2019-04-28T01:00:46.848Z,101217.69
2019-04-28T01:03:17.709Z,101220.98
2019-04-28T01:05:48.028Z,101220.98
2019-04-28T01:08:18.346Z,101221.52
2019-04-28T01:10:50.745Z,101226.95
2019-04-28T01:13:21.481Z,101218.48
2019-04-28T01:15:59.807Z,101221.97
2019-04-28T01:18:36.305Z,101213.50
2019-04-28T01:21:08.368Z,101217.82
2019-04-28T01:23:40.266Z,101215.97
2019-04-28T01:26:10.550Z,101218.48
2019-04-28T01:28:42.471Z,101216.94
2019-04-28T01:31:39.515Z,101211.42
2019-04-28T01:34:20.914Z,101211.74
2019-04-28T01:36:52.534Z,101218.61
2019-04-28T01:39:22.797Z,101215.92
2019-04-28T01:41:53.134Z,101208.21
2019-04-28T01:44:23.724Z,101214.38
2019-04-28T01:46:54.424Z,101217.86
2019-04-28T01:49:24.687Z,101213.72
2019-04-28T01:52:00.834Z,101220.11
2019-04-28T01:54:30.847Z,101223.33
2019-04-28T01:57:01.704Z,101222.45
2019-04-28T01:59:32.117Z,101218.91
2019-04-28T02:02:02.674Z,101231.69
2019-04-28T02:04:32.947Z,101231.20
2019-04-28T02:07:03.539Z,101230.59
2019-04-28T02:09:33.804Z,101227.89
2019-04-28T02:12:04.340Z,101225.29
2019-04-28T02:14:34.623Z,101235.11
2019-04-28T02:17:04.992Z,101232.95
2019-04-28T02:19:35.584Z,101227.58
2019-04-28T02:22:14.731Z,101230.80
2019-04-28T02:24:44.991Z,101233.83
2019-04-28T02:27:17.045Z,101233.63
2019-04-28T02:29:47.331Z,101235.11
2019-04-28T02:32:21.290Z,101236.25
2019-04-28T02:34:50.823Z,101241.36
2019-04-28T02:37:21.763Z,101236.70
2019-04-28T02:39:52.052Z,101237.13
2019-04-28T02:42:23.954Z,101239.60
2019-04-28T02:44:55.258Z,101241.97
2019-04-28T02:47:27.881Z,101244.11
2019-04-28T02:50:03.727Z,101244.11
2019-04-28T02:53:01.593Z,101248.28
2019-04-28T02:55:32.868Z,101250.44
2019-04-28T02:58:04.866Z,101253.92
2019-04-28T03:00:35.162Z,101252.91
2019-04-28T03:03:05.498Z,101257.63
2019-04-28T03:05:35.833Z,101259.64
2019-04-28T03:08:06.495Z,101257.34
2019-04-28T03:10:37.042Z,101261.34
2019-04-28T03:13:07.615Z,101257.37
2019-04-28T03:15:37.994Z,101257.88
2019-04-28T03:18:08.264Z,101254.24
2019-04-28T03:20:41.530Z,101260.48
2019-04-28T03:23:12.433Z,101264.31
2019-04-28T03:25:50.807Z,101264.17
2019-04-28T03:28:42.882Z,101266.77
2019-04-28T03:32:04.011Z,101261.75
2019-04-28T03:34:12.947Z,101268.05
2019-04-28T03:36:43.186Z,101258.37
2019-04-28T03:39:13.480Z,101269.85
2019-04-28T03:41:43.879Z,101259.64
2019-04-28T03:44:14.134Z,101266.77
2019-04-28T03:46:51.211Z,101260.63
2019-04-28T03:49:34.612Z,101263.38
2019-04-28T03:52:05.999Z,101264.56
2019-04-28T03:54:36.603Z,101264.17
2019-04-28T03:57:06.902Z,101264.17
2019-04-28T03:59:37.215Z,101269.08
2019-04-28T04:02:07.555Z,101270.92
2019-04-28T04:04:40.720Z,101283.84
2019-04-28T04:07:11.149Z,101275.09
2019-04-28T04:09:52.386Z,101276.66
2019-04-28T04:12:40.357Z,101287.64
2019-04-28T04:15:32.391Z,101281.49
2019-04-28T04:18:07.272Z,101281.49
2019-04-28T04:20:37.680Z,101278.39
2019-04-28T04:23:11.073Z,101285.06
2019-04-28T04:25:41.889Z,101284.80
2019-04-28T04:28:12.576Z,101289.56
2019-04-28T04:30:43.098Z,101288.43
2019-04-28T04:33:13.642Z,101293.14
2019-04-28T04:35:43.946Z,101295.01
2019-04-28T04:38:14.256Z,101295.98
2019-04-28T04:40:44.586Z,101288.31
2019-04-28T04:43:16.661Z,101299.47
2019-04-28T04:45:46.926Z,101306.39
2019-04-28T04:48:21.468Z,101303.04
2019-04-28T04:50:51.276Z,101308.16
2019-04-28T04:53:21.801Z,101312.33
2019-04-28T04:55:52.720Z,101317.36
2019-04-28T04:58:23.027Z,101316.88
2019-04-28T05:01:07.882Z,101319.42
2019-04-28T05:03:41.749Z,101319.38
2019-04-28T05:06:29.875Z,101327.66
2019-04-28T05:09:00.178Z,101326.39
2019-04-28T05:11:30.472Z,101329.00
2019-04-28T05:14:01.026Z,101329.48
2019-04-28T05:16:34.881Z,101334.30
2019-04-28T05:19:05.483Z,101337.39
2019-04-28T05:21:36.164Z,101340.17
2019-04-28T05:24:24.341Z,101340.91
2019-04-28T05:26:54.950Z,101338.17
2019-04-28T05:29:26.831Z,101343.88
2019-04-28T05:32:02.008Z,101345.02
2019-04-28T05:34:30.895Z,101346.71
2019-04-28T05:37:02.504Z,101351.22
2019-04-28T05:39:32.839Z,101350.34
2019-04-28T05:42:05.608Z,101354.36
2019-04-28T05:44:37.610Z,101352.16
2019-04-28T05:47:10.045Z,101365.79
2019-04-28T05:49:53.458Z,101363.89
2019-04-28T05:53:01.093Z,101361.42
2019-04-28T05:55:42.578Z,101360.05
2019-04-28T05:58:30.271Z,101361.34
2019-04-28T06:01:25.483Z,101366.05
2019-04-28T06:03:55.904Z,101363.18
2019-04-28T06:06:30.342Z,101362.86
2019-04-28T06:09:29.482Z,101356.84
2019-04-28T06:12:00.194Z,101368.23
2019-04-28T06:14:34.225Z,101363.45
2019-04-28T06:17:04.498Z,101366.86
2019-04-28T06:19:35.058Z,101367.11
2019-04-28T06:22:05.347Z,101368.11
2019-04-28T06:24:36.826Z,101366.72
2019-04-28T06:27:08.727Z,101374.91
2019-04-28T06:29:39.073Z,101374.91
2019-04-28T06:32:09.621Z,101371.81
2019-04-28T06:34:39.930Z,101372.72
2019-04-28T06:37:10.515Z,101364.78
2019-04-28T06:39:41.186Z,101364.78
2019-04-28T06:42:13.066Z,101371.92
2019-04-28T06:44:43.429Z,101368.03
2019-04-28T06:47:16.653Z,101376.44
2019-04-28T06:49:45.979Z,101377.90
2019-04-28T06:52:16.588Z,101384.28
2019-04-28T06:54:47.202Z,101380.16
2019-04-28T06:57:17.536Z,101381.22
2019-04-28T06:59:47.839Z,101385.36
2019-04-28T07:02:18.151Z,101387.69
2019-04-28T07:05:00.945Z,101392.47
2019-04-28T07:07:21.091Z,101395.21
2019-04-28T07:09:51.344Z,101400.21
2019-04-28T07:12:23.054Z,101392.48
2019-04-28T07:14:53.901Z,101398.02
2019-04-28T07:17:25.715Z,101396.91
2019-04-28T07:20:03.697Z,101400.81
2019-04-28T07:22:34.447Z,101400.48
2019-04-28T07:25:05.067Z,101400.37
2019-04-28T07:27:36.846Z,101402.48
2019-04-28T07:30:07.499Z,101406.95
2019-04-28T07:32:39.330Z,101409.48
2019-04-28T07:35:11.107Z,101403.98
2019-04-28T07:37:41.594Z,101402.18
2019-04-28T07:40:12.197Z,101398.56
2019-04-28T07:42:42.893Z,101399.30
2019-04-28T07:45:13.483Z,101402.38
2019-04-28T07:47:43.855Z,101402.38
2019-04-28T07:50:14.594Z,101402.16
2019-04-28T07:52:59.819Z,101403.62
2019-04-28T07:55:30.261Z,101408.42
2019-04-28T07:58:02.437Z,101414.70
2019-04-28T08:00:33.270Z,101407.19
2019-04-28T08:03:06.124Z,101406.10
2019-04-28T08:05:36.437Z,101400.55
2019-04-28T08:08:07.119Z,101405.94
2019-04-28T08:10:37.755Z,101411.30
2019-04-28T08:13:08.211Z,101418.33
2019-04-28T08:15:39.817Z,101429.34
2019-04-28T08:18:11.513Z,101424.67
2019-04-28T08:20:42.167Z,101426.27
2019-04-28T08:23:13.714Z,101423.66
2019-04-28T08:25:44.259Z,101420.01
2019-04-28T08:28:15.085Z,101427.91
2019-04-28T08:30:45.585Z,101424.96
2019-04-28T08:34:01.661Z,101431.97
2019-04-28T08:36:22.948Z,101432.63
2019-04-28T08:38:55.578Z,101433.66
2019-04-28T08:41:25.882Z,101432.39
2019-04-28T08:43:56.559Z,101427.16
2019-04-28T08:46:27.168Z,101415.10
2019-04-28T08:48:58.752Z,101413.68
2019-04-28T08:51:29.381Z,101418.77
2019-04-28T08:53:59.978Z,101409.83
2019-04-28T08:56:30.606Z,101420.14
2019-04-28T08:59:01.731Z,101421.56
2019-04-28T09:01:32.317Z,101430.00
2019-04-28T09:04:14.877Z,101431.20
2019-04-28T09:06:36.909Z,101442.14
2019-04-28T09:09:13.182Z,101444.81
2019-04-28T09:11:43.868Z,101442.47
2019-04-28T09:14:15.312Z,101447.84
2019-04-28T09:16:46.559Z,101453.08
2019-04-28T09:19:18.452Z,101451.04
2019-04-28T09:21:49.012Z,101437.26
2019-04-28T09:24:20.688Z,101416.48
2019-04-28T09:26:51.302Z,101426.53
2019-04-28T09:29:22.390Z,101419.45
2019-04-28T09:31:52.959Z,101431.03
2019-04-28T09:34:28.351Z,101440.43
2019-04-28T09:36:58.201Z,101452.11
2019-04-28T09:39:46.428Z,101447.77
2019-04-28T09:45:16.140Z,101448.18
2019-04-28T09:47:46.564Z,101451.77
2019-04-28T09:50:17.263Z,101450.81
2019-04-28T09:52:48.859Z,101444.70
2019-04-28T09:55:20.862Z,101434.35
2019-04-28T09:57:54.800Z,101436.69
2019-04-28T10:00:25.511Z,101433.28
2019-04-28T10:02:56.776Z,101446.70
2019-04-28T10:05:27.355Z,101450.42
2019-04-28T10:07:59.930Z,101449.30
2019-04-28T10:10:31.137Z,101446.02
2019-04-28T10:13:02.631Z,101449.34
2019-04-28T10:15:33.909Z,101457.30
2019-04-28T10:18:05.494Z,101474.11
2019-04-28T10:20:36.155Z,101474.11
2019-04-28T10:23:09.520Z,101471.52
2019-04-28T10:25:40.135Z,101465.21
2019-04-28T10:28:13.884Z,101472.89
2019-04-28T10:30:44.436Z,101458.17
2019-04-28T10:33:15.032Z,101464.86
2019-04-28T10:35:45.914Z,101460.80
2019-04-28T10:38:17.542Z,101464.33
2019-04-28T10:40:56.859Z,101467.97
2019-04-28T10:43:27.409Z,101463.73
2019-04-28T10:45:58.182Z,101467.87
2019-04-28T10:48:29.230Z,101469.25
2019-04-28T10:51:01.210Z,101469.25
2019-04-28T10:53:31.881Z,101458.65
2019-04-28T10:56:02.253Z,101456.28
2019-04-28T10:58:33.186Z,101457.50
2019-04-28T11:01:03.566Z,101443.73
2019-04-28T11:03:34.220Z,101452.59
2019-04-28T11:06:04.797Z,101455.80
2019-04-28T11:08:52.486Z,101458.20
2019-04-28T11:11:27.478Z,101454.23
2019-04-28T11:13:58.625Z,101463.91
2019-04-28T11:16:35.133Z,101472.78
2019-04-28T11:19:06.304Z,101480.45
2019-04-28T11:21:36.932Z,101487.75
2019-04-28T11:24:07.320Z,101490.30
2019-04-28T11:26:37.992Z,101485.70
2019-04-28T11:29:09.741Z,101475.59
2019-04-28T11:31:40.423Z,101474.16
2019-04-28T11:34:30.813Z,101459.34
2019-04-28T11:37:01.679Z,101457.73
2019-04-28T11:39:35.136Z,101453.84
2019-04-28T11:42:08.328Z,101457.32
2019-04-28T11:44:38.922Z,101458.17
2019-04-28T11:47:11.863Z,101459.81
2019-04-28T11:49:42.452Z,101466.36
2019-04-28T11:52:13.473Z,101454.87
2019-04-28T11:54:44.174Z,101465.98
2019-04-28T11:57:15.064Z,101463.33
2019-04-28T11:59:45.581Z,101463.91
2019-04-28T12:02:16.564Z,101463.91
2019-04-28T12:04:47.121Z,101466.77
2019-04-28T12:07:17.818Z,101473.80
2019-04-28T12:10:04.462Z,101473.51
2019-04-28T12:12:35.908Z,101477.77
2019-04-28T12:15:17.572Z,101479.80
2019-04-28T12:18:10.132Z,101479.80
2019-04-28T12:20:41.158Z,101477.19
2019-04-28T12:23:11.715Z,101475.05
2019-04-28T12:25:42.308Z,101475.88
2019-04-28T12:28:12.918Z,101481.59
2019-04-28T12:30:43.502Z,101478.80
2019-04-28T12:33:14.199Z,101482.83
2019-04-28T12:35:47.877Z,101483.23
2019-04-28T12:38:16.946Z,101486.38
2019-04-28T12:40:47.606Z,101493.30
2019-04-28T12:43:17.926Z,101489.16
2019-04-28T12:45:48.826Z,101492.29
2019-04-28T12:48:19.158Z,101493.05
2019-04-28T12:50:51.110Z,101499.31
2019-04-28T12:53:22.388Z,101505.70
2019-04-28T12:55:52.995Z,101501.23
2019-04-28T12:58:23.601Z,101511.59
2019-04-28T13:01:07.483Z,101510.55
2019-04-28T13:03:48.605Z,101521.08
2019-04-28T13:06:19.292Z,101518.34
2019-04-28T13:08:49.919Z,101513.78
2019-04-28T13:11:21.946Z,101513.78
2019-04-28T13:13:52.211Z,101522.59
2019-04-28T13:16:22.661Z,101526.05
2019-04-28T13:18:53.300Z,101530.09
2019-04-28T13:21:24.194Z,101528.24
2019-04-28T13:23:54.512Z,101529.14
2019-04-28T13:26:24.829Z,101533.12
2019-04-28T13:28:55.433Z,101528.86
2019-04-28T13:31:25.776Z,101532.70
2019-04-28T13:33:58.088Z,101530.60
2019-04-28T13:36:28.950Z,101532.28
2019-04-28T13:39:01.697Z,101535.58
2019-04-28T13:41:33.765Z,101532.89
2019-04-28T13:44:06.530Z,101532.69
2019-04-28T13:46:37.228Z,101528.76
2019-04-28T13:49:09.676Z,101529.58
2019-04-28T13:51:40.080Z,101534.08
2019-04-28T13:54:14.201Z,101526.89
2019-04-28T13:56:44.871Z,101529.81
2019-04-28T13:59:18.899Z,101533.77
2019-04-28T14:02:03.702Z,101541.48
2019-04-28T14:04:46.320Z,101541.48
2019-04-28T14:07:16.708Z,101533.47
2019-04-28T14:09:47.351Z,101534.87
2019-04-28T14:12:17.961Z,101533.14
2019-04-28T14:14:49.090Z,101533.78
2019-04-28T14:17:19.732Z,101523.85
2019-04-28T14:19:50.208Z,101529.00
2019-04-28T14:22:21.137Z,101529.22
2019-04-28T14:24:52.862Z,101535.11
2019-04-28T14:27:23.548Z,101535.11
2019-04-28T14:29:56.077Z,101538.12
2019-04-28T14:32:26.775Z,101536.45
2019-04-28T14:34:57.393Z,101545.77
2019-04-28T14:37:27.763Z,101542.06
2019-04-28T14:40:00.685Z,101553.06
2019-04-28T14:42:31.315Z,101558.70
2019-04-28T14:45:03.366Z,101567.27
2019-04-28T14:47:35.000Z,101561.23
2019-04-28T14:50:07.375Z,101573.22
2019-04-28T14:52:37.744Z,101567.80
2019-04-28T14:55:08.937Z,101570.34
2019-04-28T14:57:39.335Z,101569.05
2019-04-28T15:00:12.438Z,101571.44
2019-04-28T15:03:04.875Z,101570.60
2019-04-28T15:05:50.914Z,101573.04
2019-04-28T15:08:39.854Z,101567.27
2019-04-28T15:11:25.008Z,101574.83
2019-04-28T15:13:55.648Z,101575.53
2019-04-28T15:16:26.058Z,101582.00
2019-04-28T15:18:57.688Z,101579.19
2019-04-28T15:21:28.301Z,101584.95
2019-04-28T15:23:58.800Z,101590.97
2019-04-28T15:26:29.192Z,101593.69
2019-04-28T15:29:00.626Z,101597.08
2019-04-28T15:31:32.596Z,101594.91
2019-04-28T15:34:03.146Z,101594.41
2019-04-28T15:36:33.555Z,101592.98
2019-04-28T15:39:06.873Z,101590.24
2019-04-28T15:41:37.598Z,101586.73
2019-04-28T15:44:08.034Z,101590.83
2019-04-28T15:46:38.391Z,101583.48
2019-04-28T15:49:09.001Z,101578.70
2019-04-28T15:51:41.832Z,101584.86
2019-04-28T15:54:12.180Z,101580.22
2019-04-28T15:56:45.694Z,101580.07
2019-04-28T15:59:18.629Z,101580.45
2019-04-28T16:01:49.341Z,101582.20
2019-04-28T16:04:19.964Z,101575.38
2019-04-28T16:06:50.661Z,101576.20
2019-04-28T16:09:22.851Z,101580.52
2019-04-28T16:11:53.460Z,101581.53
2019-04-28T16:14:23.994Z,101587.62
2019-04-28T16:16:54.672Z,101590.94
2019-04-28T16:19:25.425Z,101589.97
2019-04-28T16:21:56.007Z,101592.48
2019-04-28T16:24:26.623Z,101597.32
2019-04-28T16:26:56.952Z,101594.45
2019-04-28T16:29:27.358Z,101590.09
2019-04-28T16:31:57.928Z,101589.23
2019-04-28T16:34:28.485Z,101595.18
2019-04-28T16:36:59.130Z,101590.91
2019-04-28T16:39:29.646Z,101593.87
2019-04-28T16:42:01.375Z,101591.64
2019-04-28T16:44:32.733Z,101599.64
2019-04-28T16:47:03.061Z,101606.61
2019-04-28T16:49:35.844Z,101610.97
2019-04-28T16:52:06.165Z,101606.75
2019-04-28T16:54:36.897Z,101612.27
2019-04-28T16:57:16.968Z,101614.02
2019-04-28T16:59:57.700Z,101618.12
2019-04-28T17:02:36.094Z,101626.13
2019-04-28T17:05:08.481Z,101623.28
2019-04-28T17:07:46.059Z,101624.13
2019-04-28T17:10:12.137Z,101625.70
2019-04-28T17:12:42.729Z,101631.58
2019-04-28T17:15:14.556Z,101633.15
2019-04-28T17:17:44.975Z,101632.64
2019-04-28T17:20:15.634Z,101634.31
2019-04-28T17:22:46.065Z,101639.87
2019-04-28T17:25:17.940Z,101639.84
2019-04-28T17:27:48.324Z,101641.47
2019-04-28T17:30:18.864Z,101646.48
2019-04-28T17:32:49.249Z,101648.77
2019-04-28T17:35:21.541Z,101647.66
2019-04-28T17:38:05.742Z,101654.44
2019-04-28T17:40:26.083Z,101652.28
2019-04-28T17:42:56.712Z,101650.92
2019-04-28T17:45:27.492Z,101655.38
2019-04-28T17:48:03.096Z,101663.52
2019-04-28T17:50:33.787Z,101662.53
2019-04-28T17:53:04.916Z,101663.42
2019-04-28T17:55:35.430Z,101668.52
2019-04-28T17:58:06.940Z,101670.23
2019-04-28T18:00:50.186Z,101667.77
2019-04-28T18:03:27.882Z,101676.38
2019-04-28T18:06:17.592Z,101678.92
2019-04-28T18:08:39.346Z,101682.89
2019-04-28T18:11:09.634Z,101689.88
2019-04-28T18:13:39.948Z,101692.05
2019-04-28T18:16:29.711Z,101693.23
2019-04-28T18:19:04.903Z,101693.09
2019-04-28T18:21:35.275Z,101695.45
2019-04-28T18:24:05.801Z,101695.72
2019-04-28T18:26:36.493Z,101700.45
2019-04-28T18:29:06.829Z,101711.89
2019-04-28T18:31:56.639Z,101709.84
2019-04-28T18:34:47.031Z,101723.33
2019-04-28T18:37:43.868Z,101729.92
2019-04-28T18:40:30.472Z,101735.20
2019-04-28T18:43:20.386Z,101743.41
2019-04-28T18:45:50.949Z,101755.42
2019-04-28T18:48:21.299Z,101759.78
2019-04-28T18:50:52.608Z,101759.88
2019-04-28T18:53:22.967Z,101766.70
2019-04-28T18:55:54.308Z,101768.89
2019-04-28T18:58:24.940Z,101771.86
2019-04-28T19:01:30.320Z,101777.16
2019-04-28T19:04:00.644Z,101776.98
2019-04-28T19:06:31.037Z,101774.94
2019-04-28T19:09:14.095Z,101787.58
2019-04-28T19:11:48.842Z,101788.36
2019-04-28T19:14:29.507Z,101787.09
2019-04-28T19:17:38.353Z,101797.44
2019-04-28T19:20:13.569Z,101797.44
2019-04-28T19:22:46.809Z,101809.41
2019-04-28T19:25:20.599Z,101810.85
2019-04-28T19:27:51.000Z,101809.58
2019-04-28T19:30:21.795Z,101811.43
2019-04-28T19:32:52.253Z,101818.69
2019-04-28T19:35:23.976Z,101826.72
2019-04-28T19:37:54.427Z,101824.61
2019-04-28T19:40:26.568Z,101831.61
2019-04-28T19:42:57.014Z,101830.77
2019-04-28T19:45:30.198Z,101840.23
2019-04-28T19:48:00.675Z,101841.72
2019-04-28T19:50:30.971Z,101844.28
2019-04-28T19:53:01.611Z,101848.42
2019-04-28T19:55:36.202Z,101849.52
2019-04-28T19:58:26.456Z,101851.30
2019-04-28T20:01:01.977Z,101851.75
2019-04-28T20:03:32.758Z,101856.17
2019-04-28T20:06:03.543Z,101860.50
2019-04-28T20:08:33.963Z,101855.05
2019-04-28T20:11:04.343Z,101854.34
2019-04-28T20:13:34.793Z,101863.38
2019-04-28T20:16:05.242Z,101864.69
2019-04-28T20:18:35.656Z,101871.13
2019-04-28T20:21:07.917Z,101873.00
2019-04-28T20:23:38.267Z,101868.17
2019-04-28T20:26:10.492Z,101871.77
2019-04-28T20:28:41.170Z,101876.00
2019-04-28T20:31:13.791Z,101870.67
2019-04-28T20:33:44.174Z,101870.67
2019-04-28T20:47:40.597Z,101885.97
2019-04-28T20:50:17.984Z,101894.75
2019-04-28T21:00:48.520Z,101901.76
2019-04-28T21:03:18.877Z,101903.45
2019-04-28T21:05:49.223Z,101901.59
2019-04-28T21:08:19.499Z,101911.67
2019-04-28T21:10:50.223Z,101903.64
2019-04-28T21:13:20.737Z,101907.57
2019-04-28T21:15:52.322Z,101910.62
2019-04-28T21:18:22.760Z,101913.44
2019-04-28T21:20:53.341Z,101909.72
2019-04-28T21:23:24.589Z,101914.63
2019-04-28T21:25:54.931Z,101919.31
2019-04-28T21:28:25.567Z,101915.80
2019-04-28T21:30:55.919Z,101916.61
2019-04-28T21:33:26.454Z,101921.08
2019-04-28T21:35:57.019Z,101926.39
2019-04-28T21:38:27.490Z,101924.33
2019-04-28T21:40:57.808Z,101924.52
2019-04-28T21:43:51.859Z,101927.25
2019-04-28T21:46:31.716Z,101925.30
2019-04-28T21:49:17.043Z,101926.77
2019-04-28T21:51:47.481Z,101927.03
2019-04-28T21:54:17.848Z,101928.13
2019-04-28T21:56:48.481Z,101926.77
2019-04-28T21:59:18.894Z,101925.28
2019-04-28T22:01:49.259Z,101909.11
2019-04-28T22:04:19.698Z,101911.03
2019-04-28T22:06:50.341Z,101903.11
2019-04-28T22:09:21.016Z,101907.49
2019-04-28T22:11:51.286Z,101906.02
2019-04-28T22:14:21.599Z,101905.22
2019-04-28T22:16:51.902Z,101908.75
2019-04-28T22:19:23.791Z,101915.49
2019-04-28T22:21:55.866Z,101916.27
2019-04-28T22:24:40.046Z,101911.09
2019-04-28T22:27:12.661Z,101914.70
2019-04-28T22:29:42.975Z,101911.86
2019-04-28T22:32:13.675Z,101915.88
2019-04-28T22:34:44.018Z,101919.69
2019-04-28T22:37:14.596Z,101922.41
2019-04-28T22:39:47.910Z,101920.47
2019-04-28T22:42:18.466Z,101925.43
2019-04-28T22:44:50.279Z,101928.23
2019-04-28T22:47:20.707Z,101929.14
2019-04-28T22:49:51.212Z,101933.94
2019-04-28T22:52:22.232Z,101939.95
2019-04-28T22:55:11.446Z,101934.45
2019-04-28T22:58:06.609Z,101947.30
2019-04-28T23:00:55.675Z,101946.41
2019-04-28T23:03:37.160Z,101954.12
2019-04-28T23:06:10.359Z,101948.50
2019-04-28T23:08:39.973Z,101949.00
2019-04-28T23:11:10.331Z,101949.09
2019-04-28T23:13:40.912Z,101946.67
2019-04-28T23:16:11.290Z,101954.68
2019-04-28T23:18:43.334Z,101961.20
2019-04-28T23:21:22.300Z,101957.30
2019-04-28T23:23:52.874Z,101959.55
2019-04-28T23:26:23.234Z,101955.01
2019-04-28T23:28:55.768Z,101959.11
2019-04-28T23:31:26.024Z,101964.45
2019-04-28T23:34:00.607Z,101966.02
2019-04-28T23:36:31.029Z,101966.86
2019-04-28T23:39:01.914Z,101964.69
2019-04-28T23:41:39.222Z,101968.53
2019-04-28T23:44:09.872Z,101969.88
2019-04-28T23:46:56.405Z,101969.19
2019-04-28T23:49:27.939Z,101971.00
2019-04-28T23:52:06.500Z,101973.32
2019-04-28T23:54:38.525Z,101974.30
2019-04-28T23:57:08.936Z,101981.16
2019-04-28T23:59:39.265Z,101973.54
